ADDS TAF Board (Experimental) INFO Settings
IDs: Format: Expanded Condensed

KMCO - Orlando Intl, FL, US

Issued at 2052 UTC 27 Sep 2016
Updated at 2222 UTC 27 Sep 2016
Time2153Z 27/23Z 28/00Z 28/01Z 28/02Z 28/03Z 28/04Z 28/05Z 28/06Z 28/07Z 28/08Z 28/09Z 28/10Z 28/11Z
Type OBS PRVL PRVL PRVL PRVL PRVL PRVL PRVL PRVL PRVL PRVL PRVL PRVL PRVL
VIS 10 >6 >6 >6 >6 >6 >6 >6 >6 >6 >6 >6 >6 >6
CIG 200 60 250 250 250 250 -- -- -- -- -- -- -- --
Cover BKN BKN BKN BKN BKN BKN SCT SCT SCT SCT SCT SCT SCT SCT
FltCat VFR VFR VFR VFR VFR VFR VFR VFR VFR VFR VFR VFR VFR VFR
WX -- VCTS -- -- -- -- -- -- -- -- -- -- -- --
WDir 260 280 220 220 220 220 230 230 230 230 230 230 230 230
WSpd 5 5 4 4 4 4 3 3 3 3 3 3 3 3
WGst -- -- -- -- -- -- -- -- -- -- -- -- -- --
R17/35
XWnd -5 -5 -3 -3 -3 -3 -2 -2 -2 -2 -2 -2 -2 -2
HWnd 1 -1 3 3 3 3 2 2 2 2 2 2 2 2
R18/36
XWnd -5 -5 -3 -3 -3 -3 -2 -2 -2 -2 -2 -2 -2 -2
HWnd 1 -1 3 3 3 3 2 2 2 2 2 2 2 2

Raw TAF
KMCO 272052Z 2721/2818 28005KT P6SM VCTS SCT040CB BKN060 BKN120
  FM280000 22004KT P6SM SCT040 SCT120 BKN250
  FM280400 23003KT P6SM SCT250
  FM281400 23005KT P6SM SCT025


Raw METAR
KMCO 272153Z 26005KT 10SM FEW040 SCT140 BKN200 27/21 A2989 RMK AO2 LTG DSNT E-S SLP119 CB DSNT E-S MOV SE T02720206
KMCO 272053Z 00000KT 10SM FEW040 BKN120 BKN250 27/22 A2990 RMK AO2 LTG DSNT N AND S AND NW RAE31 TSE26 SLP123 CB DSNT E AND DSNT S AND DSNT NW-N MOV E P0016 60016 T02670222 56007
KMCO 272027Z COR 27004KT 10SM -RA SCT031 BKN050 BKN120 BKN250 26/22 A2992 RMK AO2 LTG DSNT SW-NW TSE26 TS DSIPTD CB DSNT S-W-NW MOV E P0016 T02560217
KMCO 271953Z COR 34004KT 6SM -TSRA SCT040CB BKN110 BKN250 27/20 A2991 RMK AO2 LTG DSNT ALQDS RAB44 TSB13 SLP128 VIS E 2 FRQ LTGICCG W-NW TS W-NW MOV E CB E MOV E P0000 T02720200

METAR Board
Radar Display
Forecast Discussion

TAF Board Legend

Potential Impact
Threat None Slight Moderate High
Visibility (sm) ≥5.1 5.1>X≥3 3>X≥1 <1
Ceiling (100 ft) ≥30.1 30.1>X≥10 10>X≥5 <5
Wind Speed (kt) <10 10≤X<20 20≤X<30 ≥30
Wind Gust (kt) <15 15≤X<25 25≤X<35 ≥35
Weather No Wx Reported VCTS,-TS,-FZRA,SN TS,FZRA +TS,+FZRA,+SN